sensor_id;sensor_type;location;lat;lon;timestamp;pressure;altitude;pressure_sealevel;temperature;humidity
27014;BME280;14556;52.222;4.510;2023-06-22T00:01:18;101209.53;;;14.98;100.00
27014;BME280;14556;52.222;4.510;2023-06-22T00:03:45;101206.28;;;14.89;100.00
27014;BME280;14556;52.222;4.510;2023-06-22T00:06:12;101219.69;;;14.96;100.00
27014;BME280;14556;52.222;4.510;2023-06-22T00:08:38;101209.41;;;14.86;100.00
27014;BME280;14556;52.222;4.510;2023-06-22T00:11:05;101210.75;;;14.70;100.00
27014;BME280;14556;52.222;4.510;2023-06-22T00:13:31;101208.25;;;14.68;100.00
27014;BME280;14556;52.222;4.510;2023-06-22T00:15:58;101209.31;;;14.67;100.00
27014;BME280;14556;52.222;4.510;2023-06-22T00:18:24;101206.41;;;14.69;100.00
27014;BME280;14556;52.222;4.510;2023-06-22T00:20:55;101200.25;;;14.61;100.00
27014;BME280;14556;52.222;4.510;2023-06-22T00:23:25;101209.72;;;14.71;100.00
27014;BME280;14556;52.222;4.510;2023-06-22T00:25:51;101203.50;;;14.70;100.00
27014;BME280;14556;52.222;4.510;2023-06-22T00:28:18;101209.09;;;14.69;100.00
27014;BME280;14556;52.222;4.510;2023-06-22T00:30:45;101210.53;;;14.71;100.00
27014;BME280;14556;52.222;4.510;2023-06-22T00:33:12;101200.75;;;14.77;100.00
27014;BME280;14556;52.222;4.510;2023-06-22T00:35:38;101213.44;;;14.70;100.00
27014;BME280;14556;52.222;4.510;2023-06-22T00:38:07;101203.09;;;14.67;100.00
27014;BME280;14556;52.222;4.510;2023-06-22T00:40:34;101208.03;;;14.70;100.00
27014;BME280;14556;52.222;4.510;2023-06-22T00:43:01;101205.56;;;14.68;100.00
27014;BME280;14556;52.222;4.510;2023-06-22T00:45:28;101213.03;;;14.66;100.00
27014;BME280;14556;52.222;4.510;2023-06-22T00:47:56;101204.97;;;14.66;100.00
27014;BME280;14556;52.222;4.510;2023-06-22T00:50:26;101200.91;;;14.57;100.00
27014;BME280;14556;52.222;4.510;2023-06-22T00:52:56;101199.41;;;14.61;100.00
27014;BME280;14556;52.222;4.510;2023-06-22T00:55:23;101191.53;;;14.59;100.00
27014;BME280;14556;52.222;4.510;2023-06-22T00:57:50;101200.06;;;14.56;100.00
27014;BME280;14556;52.222;4.510;2023-06-22T01:00:17;101198.47;;;14.42;100.00
27014;BME280;14556;52.222;4.510;2023-06-22T01:02:46;101200.38;;;14.34;100.00
27014;BME280;14556;52.222;4.510;2023-06-22T01:05:14;101192.31;;;14.34;100.00
27014;BME280;14556;52.222;4.510;2023-06-22T01:10:43;101186.28;;;14.39;100.00
27014;BME280;14556;52.222;4.510;2023-06-22T01:13:18;101181.13;;;14.37;100.00
27014;BME280;14556;52.222;4.510;2023-06-22T01:15:52;101179.81;;;14.14;100.00
27014;BME280;14556;52.222;4.510;2023-06-22T01:18:21;101180.59;;;14.22;100.00
27014;BME280;14556;52.222;4.510;2023-06-22T01:20:55;101174.13;;;14.30;100.00
27014;BME280;14556;52.222;4.510;2023-06-22T01:23:50;101165.47;;;14.21;100.00
27014;BME280;14556;52.222;4.510;2023-06-22T01:26:22;101170.41;;;14.24;100.00
27014;BME280;14556;52.222;4.510;2023-06-22T01:28:55;101174.63;;;14.13;100.00
27014;BME280;14556;52.222;4.510;2023-06-22T01:31:24;101186.56;;;14.24;100.00
27014;BME280;14556;52.222;4.510;2023-06-22T01:33:54;101179.31;;;14.24;100.00
27014;BME280;14556;52.222;4.510;2023-06-22T01:36:23;101180.97;;;14.25;100.00
27014;BME280;14556;52.222;4.510;2023-06-22T01:38:52;101172.88;;;14.32;100.00
27014;BME280;14556;52.222;4.510;2023-06-22T01:41:24;101170.59;;;14.29;100.00
27014;BME280;14556;52.222;4.510;2023-06-22T01:43:52;101169.66;;;14.17;100.00
27014;BME280;14556;52.222;4.510;2023-06-22T01:46:20;101185.59;;;14.18;100.00
27014;BME280;14556;52.222;4.510;2023-06-22T01:48:47;101171.38;;;14.04;100.00
27014;BME280;14556;52.222;4.510;2023-06-22T01:51:14;101179.00;;;14.07;100.00
27014;BME280;14556;52.222;4.510;2023-06-22T01:53:41;101179.84;;;14.08;100.00
27014;BME280;14556;52.222;4.510;2023-06-22T01:56:09;101173.19;;;14.10;100.00
27014;BME280;14556;52.222;4.510;2023-06-22T01:58:38;101177.72;;;14.10;100.00
27014;BME280;14556;52.222;4.510;2023-06-22T02:01:11;101169.66;;;14.10;100.00
27014;BME280;14556;52.222;4.510;2023-06-22T02:03:43;101169.06;;;14.08;100.00
27014;BME280;14556;52.222;4.510;2023-06-22T02:06:35;101175.31;;;13.95;100.00
27014;BME280;14556;52.222;4.510;2023-06-22T02:09:08;101173.47;;;13.95;100.00
27014;BME280;14556;52.222;4.510;2023-06-22T02:11:37;101174.31;;;13.89;100.00
27014;BME280;14556;52.222;4.510;2023-06-22T02:14:04;101162.38;;;13.78;100.00
27014;BME280;14556;52.222;4.510;2023-06-22T02:16:32;101172.03;;;13.86;100.00
27014;BME280;14556;52.222;4.510;2023-06-22T02:19:01;101168.53;;;13.85;100.00
27014;BME280;14556;52.222;4.510;2023-06-22T02:21:29;101163.81;;;13.74;100.00
27014;BME280;14556;52.222;4.510;2023-06-22T02:23:57;101163.81;;;13.74;100.00
27014;BME280;14556;52.222;4.510;2023-06-22T02:26:25;101167.31;;;13.81;100.00
27014;BME280;14556;52.222;4.510;2023-06-22T02:28:52;101172.03;;;13.93;100.00
27014;BME280;14556;52.222;4.510;2023-06-22T02:31:19;101165.22;;;13.90;100.00
27014;BME280;14556;52.222;4.510;2023-06-22T02:33:46;101171.22;;;13.85;100.00
27014;BME280;14556;52.222;4.510;2023-06-22T02:36:14;101157.38;;;13.82;100.00
27014;BME280;14556;52.222;4.510;2023-06-22T02:38:41;101165.88;;;13.78;100.00
27014;BME280;14556;52.222;4.510;2023-06-22T02:41:17;101146.25;;;13.64;100.00
27014;BME280;14556;52.222;4.510;2023-06-22T02:43:45;101163.00;;;13.66;100.00
27014;BME280;14556;52.222;4.510;2023-06-22T02:46:13;101162.00;;;13.68;100.00
27014;BME280;14556;52.222;4.510;2023-06-22T02:48:40;101153.69;;;13.76;100.00
27014;BME280;14556;52.222;4.510;2023-06-22T02:51:07;101151.81;;;13.70;100.00
27014;BME280;14556;52.222;4.510;2023-06-22T02:53:33;101150.19;;;13.69;100.00
27014;BME280;14556;52.222;4.510;2023-06-22T02:56:03;101155.94;;;13.79;100.00
27014;BME280;14556;52.222;4.510;2023-06-22T02:58:32;101151.63;;;13.78;100.00
27014;BME280;14556;52.222;4.510;2023-06-22T03:01:05;101153.03;;;13.81;100.00
27014;BME280;14556;52.222;4.510;2023-06-22T03:03:32;101150.56;;;13.79;100.00
27014;BME280;14556;52.222;4.510;2023-06-22T03:05:59;101145.44;;;13.71;100.00
27014;BME280;14556;52.222;4.510;2023-06-22T03:08:28;101162.38;;;13.71;100.00
27014;BME280;14556;52.222;4.510;2023-06-22T03:10:55;101160.78;;;13.57;100.00
27014;BME280;14556;52.222;4.510;2023-06-22T03:13:22;101147.56;;;13.55;100.00
27014;BME280;14556;52.222;4.510;2023-06-22T03:15:49;101157.66;;;13.60;100.00
27014;BME280;14556;52.222;4.510;2023-06-22T03:18:15;101158.50;;;13.60;100.00
27014;BME280;14556;52.222;4.510;2023-06-22T03:20:42;101165.91;;;13.65;100.00
27014;BME280;14556;52.222;4.510;2023-06-22T03:23:08;101162.19;;;13.59;100.00
27014;BME280;14556;52.222;4.510;2023-06-22T03:25:35;101160.16;;;13.48;100.00
27014;BME280;14556;52.222;4.510;2023-06-22T03:28:02;101142.38;;;13.40;100.00
27014;BME280;14556;52.222;4.510;2023-06-22T03:30:28;101139.28;;;13.43;100.00
27014;BME280;14556;52.222;4.510;2023-06-22T03:32:55;101134.09;;;13.41;100.00
27014;BME280;14556;52.222;4.510;2023-06-22T03:35:22;101129.53;;;13.49;100.00
27014;BME280;14556;52.222;4.510;2023-06-22T03:37:49;101134.69;;;13.57;100.00
27014;BME280;14556;52.222;4.510;2023-06-22T03:40:15;101129.94;;;13.59;100.00
27014;BME280;14556;52.222;4.510;2023-06-22T03:42:42;101120.47;;;13.57;100.00
27014;BME280;14556;52.222;4.510;2023-06-22T03:45:09;101125.44;;;13.53;100.00
27014;BME280;14556;52.222;4.510;2023-06-22T03:47:35;101127.47;;;13.51;100.00
27014;BME280;14556;52.222;4.510;2023-06-22T03:50:02;101122.75;;;13.46;100.00
27014;BME280;14556;52.222;4.510;2023-06-22T03:52:30;101127.06;;;13.47;100.00
27014;BME280;14556;52.222;4.510;2023-06-22T03:54:56;101127.91;;;13.54;100.00
27014;BME280;14556;52.222;4.510;2023-06-22T03:57:23;101121.69;;;13.54;100.00
27014;BME280;14556;52.222;4.510;2023-06-22T03:59:50;101126.06;;;13.55;100.00
27014;BME280;14556;52.222;4.510;2023-06-22T04:02:16;101123.16;;;13.57;100.00
27014;BME280;14556;52.222;4.510;2023-06-22T04:04:43;101124.56;;;13.59;100.00
27014;BME280;14556;52.222;4.510;2023-06-22T04:07:09;101125.41;;;13.60;100.00
27014;BME280;14556;52.222;4.510;2023-06-22T04:09:36;101124.75;;;13.64;100.00
27014;BME280;14556;52.222;4.510;2023-06-22T04:12:02;101123.34;;;13.62;100.00
27014;BME280;14556;52.222;4.510;2023-06-22T04:14:29;101120.44;;;13.63;100.00
27014;BME280;14556;52.222;4.510;2023-06-22T04:16:57;101115.25;;;13.69;100.00
27014;BME280;14556;52.222;4.510;2023-06-22T04:19:24;101120.63;;;13.69;100.00
27014;BME280;14556;52.222;4.510;2023-06-22T04:21:50;101115.03;;;13.70;100.00
27014;BME280;14556;52.222;4.510;2023-06-22T04:24:17;101121.47;;;13.69;100.00
27014;BME280;14556;52.222;4.510;2023-06-22T04:26:43;101112.75;;;13.74;100.00
27014;BME280;14556;52.222;4.510;2023-06-22T04:29:12;101120.59;;;13.75;100.00
27014;BME280;14556;52.222;4.510;2023-06-22T04:31:38;101121.44;;;13.76;100.00
27014;BME280;14556;52.222;4.510;2023-06-22T04:34:06;101128.63;;;13.82;100.00
27014;BME280;14556;52.222;4.510;2023-06-22T04:36:38;101133.97;;;13.89;100.00
27014;BME280;14556;52.222;4.510;2023-06-22T04:39:09;101126.09;;;13.94;100.00
27014;BME280;14556;52.222;4.510;2023-06-22T04:41:40;101129.34;;;14.03;100.00
27014;BME280;14556;52.222;4.510;2023-06-22T04:44:13;101121.06;;;14.11;100.00
27014;BME280;14556;52.222;4.510;2023-06-22T04:46:40;101123.94;;;14.10;100.00
27014;BME280;14556;52.222;4.510;2023-06-22T04:49:07;101128.16;;;14.31;100.00
27014;BME280;14556;52.222;4.510;2023-06-22T04:51:41;101127.53;;;14.36;100.00
27014;BME280;14556;52.222;4.510;2023-06-22T04:54:09;101127.00;;;14.53;100.00
27014;BME280;14556;52.222;4.510;2023-06-22T04:56:35;101131.81;;;14.69;100.00
27014;BME280;14556;52.222;4.510;2023-06-22T04:59:02;101134.47;;;14.83;100.00
27014;BME280;14556;52.222;4.510;2023-06-22T05:01:29;101127.50;;;14.94;100.00
27014;BME280;14556;52.222;4.510;2023-06-22T05:03:57;101127.81;;;15.04;100.00
27014;BME280;14556;52.222;4.510;2023-06-22T05:06:27;101130.25;;;15.13;100.00
27014;BME280;14556;52.222;4.510;2023-06-22T05:08:55;101127.50;;;15.19;100.00
27014;BME280;14556;52.222;4.510;2023-06-22T05:11:26;101130.50;;;15.30;100.00
27014;BME280;14556;52.222;4.510;2023-06-22T05:13:53;101127.72;;;15.37;100.00
27014;BME280;14556;52.222;4.510;2023-06-22T05:16:20;101135.06;;;15.48;100.00
27014;BME280;14556;52.222;4.510;2023-06-22T05:18:54;101126.09;;;15.54;100.00
27014;BME280;14556;52.222;4.510;2023-06-22T05:21:26;101125.94;;;15.68;100.00
27014;BME280;14556;52.222;4.510;2023-06-22T05:23:54;101127.41;;;15.82;100.00
27014;BME280;14556;52.222;4.510;2023-06-22T05:26:20;101133.31;;;15.91;100.00
27014;BME280;14556;52.222;4.510;2023-06-22T05:28:47;101135.28;;;16.03;100.00
27014;BME280;14556;52.222;4.510;2023-06-22T05:31:14;101142.09;;;16.05;100.00
27014;BME280;14556;52.222;4.510;2023-06-22T05:33:42;101147.94;;;16.02;100.00
27014;BME280;14556;52.222;4.510;2023-06-22T05:36:09;101147.88;;;16.09;100.00
27014;BME280;14556;52.222;4.510;2023-06-22T05:38:37;101140.72;;;16.15;100.00
27014;BME280;14556;52.222;4.510;2023-06-22T05:41:05;101136.97;;;16.16;100.00
27014;BME280;14556;52.222;4.510;2023-06-22T05:43:31;101128.41;;;16.19;100.00
27014;BME280;14556;52.222;4.510;2023-06-22T05:45:59;101122.19;;;16.18;100.00
27014;BME280;14556;52.222;4.510;2023-06-22T05:48:26;101137.25;;;16.26;100.00
27014;BME280;14556;52.222;4.510;2023-06-22T05:50:53;101132.44;;;16.28;100.00
27014;BME280;14556;52.222;4.510;2023-06-22T05:53:20;101135.84;;;16.36;100.00
27014;BME280;14556;52.222;4.510;2023-06-22T05:55:46;101135.97;;;16.41;100.00
27014;BME280;14556;52.222;4.510;2023-06-22T05:58:13;101137.75;;;16.47;100.00
27014;BME280;14556;52.222;4.510;2023-06-22T06:00:40;101128.16;;;16.51;100.00
27014;BME280;14556;52.222;4.510;2023-06-22T06:03:08;101138.03;;;16.58;100.00
27014;BME280;14556;52.222;4.510;2023-06-22T06:05:35;101136.63;;;16.67;100.00
27014;BME280;14556;52.222;4.510;2023-06-22T06:08:04;101131.13;;;16.74;100.00
27014;BME280;14556;52.222;4.510;2023-06-22T06:10:33;101127.13;;;16.76;100.00
27014;BME280;14556;52.222;4.510;2023-06-22T06:13:00;101128.91;;;16.83;100.00
27014;BME280;14556;52.222;4.510;2023-06-22T06:15:31;101125.00;;;16.90;100.00
27014;BME280;14556;52.222;4.510;2023-06-22T06:17:58;101123.13;;;17.03;100.00
27014;BME280;14556;52.222;4.510;2023-06-22T06:20:26;101117.50;;;17.04;100.00
27014;BME280;14556;52.222;4.510;2023-06-22T06:22:54;101119.88;;;17.25;100.00
27014;BME280;14556;52.222;4.510;2023-06-22T06:25:21;101119.63;;;17.38;100.00
27014;BME280;14556;52.222;4.510;2023-06-22T06:27:50;101121.47;;;17.50;100.00
27014;BME280;14556;52.222;4.510;2023-06-22T06:30:18;101116.75;;;17.57;100.00
27014;BME280;14556;52.222;4.510;2023-06-22T06:32:45;101119.63;;;17.80;100.00
27014;BME280;14556;52.222;4.510;2023-06-22T06:35:13;101119.81;;;17.90;100.00
27014;BME280;14556;52.222;4.510;2023-06-22T06:37:47;101116.69;;;18.10;100.00
27014;BME280;14556;52.222;4.510;2023-06-22T06:40:15;101119.38;;;18.10;100.00
27014;BME280;14556;52.222;4.510;2023-06-22T06:42:46;101120.09;;;18.06;100.00
27014;BME280;14556;52.222;4.510;2023-06-22T06:45:16;101115.75;;;18.05;100.00
27014;BME280;14556;52.222;4.510;2023-06-22T06:47:43;101116.56;;;18.17;100.00
27014;BME280;14556;52.222;4.510;2023-06-22T06:50:10;101107.53;;;18.29;100.00
27014;BME280;14556;52.222;4.510;2023-06-22T06:52:37;101117.50;;;18.40;100.00
27014;BME280;14556;52.222;4.510;2023-06-22T06:55:05;101106.09;;;18.55;100.00
27014;BME280;14556;52.222;4.510;2023-06-22T06:57:39;101105.41;;;18.65;100.00
27014;BME280;14556;52.222;4.510;2023-06-22T07:00:07;101105.56;;;18.76;100.00
27014;BME280;14556;52.222;4.510;2023-06-22T07:02:44;101101.22;;;18.75;100.00
27014;BME280;14556;52.222;4.510;2023-06-22T07:05:12;101100.91;;;18.71;100.00
27014;BME280;14556;52.222;4.510;2023-06-22T07:07:39;101095.88;;;18.80;100.00
27014;BME280;14556;52.222;4.510;2023-06-22T07:10:08;101093.97;;;18.97;100.00
27014;BME280;14556;52.222;4.510;2023-06-22T07:12:35;101092.50;;;19.07;100.00
27014;BME280;14556;52.222;4.510;2023-06-22T07:15:06;101090.28;;;19.21;100.00
27014;BME280;14556;52.222;4.510;2023-06-22T07:17:41;101085.06;;;19.19;100.00
27014;BME280;14556;52.222;4.510;2023-06-22T07:20:13;101083.06;;;19.32;100.00
27014;BME280;14556;52.222;4.510;2023-06-22T07:22:43;101081.81;;;19.40;100.00
27014;BME280;14556;52.222;4.510;2023-06-22T07:25:11;101075.22;;;19.58;100.00
27014;BME280;14556;52.222;4.510;2023-06-22T07:27:46;101077.03;;;19.75;100.00
27014;BME280;14556;52.222;4.510;2023-06-22T07:30:14;101080.94;;;19.84;100.00
27014;BME280;14556;52.222;4.510;2023-06-22T07:32:41;101077.41;;;19.84;100.00
27014;BME280;14556;52.222;4.510;2023-06-22T07:35:08;101077.81;;;19.98;100.00
27014;BME280;14556;52.222;4.510;2023-06-22T07:37:34;101076.22;;;20.02;100.00
27014;BME280;14556;52.222;4.510;2023-06-22T07:40:02;101074.19;;;20.14;100.00
27014;BME280;14556;52.222;4.510;2023-06-22T07:42:32;101049.25;;;20.23;100.00
27014;BME280;14556;52.222;4.510;2023-06-22T07:44:59;101050.69;;;20.31;100.00
27014;BME280;14556;52.222;4.510;2023-06-22T07:47:26;101057.06;;;20.47;100.00
27014;BME280;14556;52.222;4.510;2023-06-22T07:49:58;101048.13;;;20.51;100.00
27014;BME280;14556;52.222;4.510;2023-06-22T07:52:30;101045.72;;;20.55;100.00
27014;BME280;14556;52.222;4.510;2023-06-22T07:54:59;101045.19;;;20.58;100.00
27014;BME280;14556;52.222;4.510;2023-06-22T07:57:25;101046.88;;;20.64;100.00
27014;BME280;14556;52.222;4.510;2023-06-22T08:00:00;101037.63;;;20.65;100.00
27014;BME280;14556;52.222;4.510;2023-06-22T08:02:26;101035.78;;;20.71;100.00
27014;BME280;14556;52.222;4.510;2023-06-22T08:04:53;101033.31;;;20.70;100.00
27014;BME280;14556;52.222;4.510;2023-06-22T08:07:31;101027.09;;;20.74;100.00
27014;BME280;14556;52.222;4.510;2023-06-22T08:10:00;101015.47;;;20.89;100.00
27014;BME280;14556;52.222;4.510;2023-06-22T08:12:26;101023.72;;;21.10;100.00
27014;BME280;14556;52.222;4.510;2023-06-22T08:14:53;101017.19;;;21.01;100.00
27014;BME280;14556;52.222;4.510;2023-06-22T08:17:19;101016.91;;;20.97;100.00
27014;BME280;14556;52.222;4.510;2023-06-22T08:19:46;101020.25;;;21.20;100.00
27014;BME280;14556;52.222;4.510;2023-06-22T08:22:12;101008.88;;;21.34;100.00
27014;BME280;14556;52.222;4.510;2023-06-22T08:24:38;101018.41;;;21.36;100.00
27014;BME280;14556;52.222;4.510;2023-06-22T08:27:07;101011.03;;;21.32;100.00
27014;BME280;14556;52.222;4.510;2023-06-22T08:29:35;101004.84;;;21.52;100.00
27014;BME280;14556;52.222;4.510;2023-06-22T08:32:02;100999.94;;;21.70;100.00
27014;BME280;14556;52.222;4.510;2023-06-22T08:34:29;100996.41;;;21.69;100.00
27014;BME280;14556;52.222;4.510;2023-06-22T08:36:55;100999.94;;;21.65;100.00
27014;BME280;14556;52.222;4.510;2023-06-22T08:39:22;101005.47;;;21.85;100.00
27014;BME280;14556;52.222;4.510;2023-06-22T08:41:48;101004.91;;;21.89;100.00
27014;BME280;14556;52.222;4.510;2023-06-22T08:44:18;101008.38;;;21.79;100.00
27014;BME280;14556;52.222;4.510;2023-06-22T08:46:45;101000.81;;;21.96;100.00
27014;BME280;14556;52.222;4.510;2023-06-22T08:49:11;101008.44;;;21.89;100.00
27014;BME280;14556;52.222;4.510;2023-06-22T08:51:38;101007.91;;;22.08;100.00
27014;BME280;14556;52.222;4.510;2023-06-22T08:54:04;101007.91;;;22.13;100.00
27014;BME280;14556;52.222;4.510;2023-06-22T08:56:31;100997.78;;;22.40;100.00
27014;BME280;14556;52.222;4.510;2023-06-22T08:58:58;100986.06;;;22.44;100.00
27014;BME280;14556;52.222;4.510;2023-06-22T09:01:24;100992.81;;;22.57;100.00
27014;BME280;14556;52.222;4.510;2023-06-22T09:03:51;100985.22;;;22.65;100.00
27014;BME280;14556;52.222;4.510;2023-06-22T09:06:22;100982.75;;;22.63;100.00
27014;BME280;14556;52.222;4.510;2023-06-22T09:08:48;100992.28;;;22.71;100.00
27014;BME280;14556;52.222;4.510;2023-06-22T09:11:15;100989.19;;;22.99;100.00
27014;BME280;14556;52.222;4.510;2023-06-22T09:13:43;100985.63;;;22.98;100.00
27014;BME280;14556;52.222;4.510;2023-06-22T09:16:10;100991.25;;;23.17;100.00
27014;BME280;14556;52.222;4.510;2023-06-22T09:18:38;100984.69;;;23.24;97.80
27014;BME280;14556;52.222;4.510;2023-06-22T09:21:04;100985.06;;;23.01;100.00
27014;BME280;14556;52.222;4.510;2023-06-22T09:23:31;100982.53;;;23.15;100.00
27014;BME280;14556;52.222;4.510;2023-06-22T09:25:57;100978.66;;;23.32;95.20
27014;BME280;14556;52.222;4.510;2023-06-22T09:28:24;100991.44;;;23.37;100.00
27014;BME280;14556;52.222;4.510;2023-06-22T09:30:51;100980.53;;;23.31;93.67
27014;BME280;14556;52.222;4.510;2023-06-22T09:33:18;100979.72;;;23.31;89.64
27014;BME280;14556;52.222;4.510;2023-06-22T09:35:45;100974.00;;;23.33;95.19
27014;BME280;14556;52.222;4.510;2023-06-22T09:38:12;100984.00;;;23.53;97.47
27014;BME280;14556;52.222;4.510;2023-06-22T09:40:38;100961.41;;;23.37;87.73
27014;BME280;14556;52.222;4.510;2023-06-22T09:43:06;100988.13;;;23.40;93.46
27014;BME280;14556;52.222;4.510;2023-06-22T09:45:33;100971.66;;;23.10;85.00
27014;BME280;14556;52.222;4.510;2023-06-22T09:47:59;100984.56;;;22.99;92.81
27014;BME280;14556;52.222;4.510;2023-06-22T09:50:26;100979.59;;;23.01;87.38
27014;BME280;14556;52.222;4.510;2023-06-22T09:52:55;100972.03;;;22.88;88.01
27014;BME280;14556;52.222;4.510;2023-06-22T09:55:22;100980.44;;;23.02;93.65
27014;BME280;14556;52.222;4.510;2023-06-22T09:57:48;100963.00;;;22.92;94.84
27014;BME280;14556;52.222;4.510;2023-06-22T10:00:16;100966.31;;;22.84;97.76
27014;BME280;14556;52.222;4.510;2023-06-22T10:02:43;100964.19;;;22.76;99.23
27014;BME280;14556;52.222;4.510;2023-06-22T10:05:11;100972.41;;;22.65;97.30
27014;BME280;14556;52.222;4.510;2023-06-22T10:07:38;100965.59;;;22.63;100.00
27014;BME280;14556;52.222;4.510;2023-06-22T10:10:12;100961.19;;;22.72;99.95
27014;BME280;14556;52.222;4.510;2023-06-22T10:12:44;100974.25;;;22.75;100.00
27014;BME280;14556;52.222;4.510;2023-06-22T10:15:11;100960.34;;;22.77;100.00
27014;BME280;14556;52.222;4.510;2023-06-22T10:17:38;100966.25;;;23.00;100.00
27014;BME280;14556;52.222;4.510;2023-06-22T10:20:08;100950.00;;;22.74;100.00
27014;BME280;14556;52.222;4.510;2023-06-22T10:22:40;100968.19;;;22.99;100.00
27014;BME280;14556;52.222;4.510;2023-06-22T10:25:08;100966.25;;;23.00;99.58
27014;BME280;14556;52.222;4.510;2023-06-22T10:27:35;100963.53;;;23.00;98.90
27014;BME280;14556;52.222;4.510;2023-06-22T10:30:02;100970.34;;;23.02;100.00
27014;BME280;14556;52.222;4.510;2023-06-22T10:32:28;100969.50;;;23.07;100.00
27014;BME280;14556;52.222;4.510;2023-06-22T10:34:55;100973.88;;;23.08;100.00
27014;BME280;14556;52.222;4.510;2023-06-22T10:37:25;100969.22;;;23.09;100.00
27014;BME280;14556;52.222;4.510;2023-06-22T10:39:51;100975.50;;;23.09;100.00
27014;BME280;14556;52.222;4.510;2023-06-22T10:42:20;100975.38;;;22.74;100.00
27014;BME280;14556;52.222;4.510;2023-06-22T10:44:46;100971.56;;;22.65;100.00
27014;BME280;14556;52.222;4.510;2023-06-22T10:47:13;100970.50;;;22.66;100.00
27014;BME280;14556;52.222;4.510;2023-06-22T10:49:40;100969.41;;;22.62;100.00
27014;BME280;14556;52.222;4.510;2023-06-22T10:52:08;100972.72;;;22.38;100.00
27014;BME280;14556;52.222;4.510;2023-06-22T10:54:35;100970.25;;;22.41;100.00
27014;BME280;14556;52.222;4.510;2023-06-22T10:57:03;100975.13;;;22.55;100.00
27014;BME280;14556;52.222;4.510;2023-06-22T10:59:30;100971.63;;;22.39;100.00
27014;BME280;14556;52.222;4.510;2023-06-22T11:01:56;100985.84;;;22.15;100.00
27014;BME280;14556;52.222;4.510;2023-06-22T11:04:24;100984.19;;;22.14;100.00
27014;BME280;14556;52.222;4.510;2023-06-22T11:06:51;100976.00;;;22.19;100.00
27014;BME280;14556;52.222;4.510;2023-06-22T11:09:17;100973.81;;;22.26;100.00
27014;BME280;14556;52.222;4.510;2023-06-22T11:11:55;100969.19;;;22.27;100.00
27014;BME280;14556;52.222;4.510;2023-06-22T11:14:22;100965.34;;;22.33;100.00
27014;BME280;14556;52.222;4.510;2023-06-22T11:16:49;100964.31;;;22.08;100.00
27014;BME280;14556;52.222;4.510;2023-06-22T11:19:16;100974.41;;;22.02;100.00
27014;BME280;14556;52.222;4.510;2023-06-22T11:21:43;100979.28;;;22.10;100.00
27014;BME280;14556;52.222;4.510;2023-06-22T11:24:10;100961.31;;;22.20;100.00
27014;BME280;14556;52.222;4.510;2023-06-22T11:26:40;100967.56;;;22.31;100.00
27014;BME280;14556;52.222;4.510;2023-06-22T11:29:06;100978.44;;;22.46;100.00
27014;BME280;14556;52.222;4.510;2023-06-22T11:31:37;100977.34;;;22.37;100.00
27014;BME280;14556;52.222;4.510;2023-06-22T11:34:04;100972.75;;;22.22;100.00
27014;BME280;14556;52.222;4.510;2023-06-22T11:36:31;100966.75;;;22.15;100.00
27014;BME280;14556;52.222;4.510;2023-06-22T11:38:59;100975.50;;;22.06;100.00
27014;BME280;14556;52.222;4.510;2023-06-22T11:41:27;100970.03;;;22.12;100.00
27014;BME280;14556;52.222;4.510;2023-06-22T11:43:53;100970.84;;;22.17;100.00
27014;BME280;14556;52.222;4.510;2023-06-22T11:46:20;100958.59;;;22.09;100.00
27014;BME280;14556;52.222;4.510;2023-06-22T11:48:46;100965.41;;;22.07;100.00
27014;BME280;14556;52.222;4.510;2023-06-22T11:51:14;100961.31;;;22.20;100.00
27014;BME280;14556;52.222;4.510;2023-06-22T11:53:41;100963.50;;;22.13;100.00
27014;BME280;14556;52.222;4.510;2023-06-22T11:56:07;100955.06;;;22.04;100.00
27014;BME280;14556;52.222;4.510;2023-06-22T11:58:36;100950.16;;;22.11;100.00
27014;BME280;14556;52.222;4.510;2023-06-22T12:01:02;100953.72;;;22.01;100.00
27014;BME280;14556;52.222;4.510;2023-06-22T12:03:29;100949.91;;;21.92;100.00
27014;BME280;14556;52.222;4.510;2023-06-22T12:05:56;100956.97;;;21.98;100.00
27014;BME280;14556;52.222;4.510;2023-06-22T12:08:23;100948.00;;;22.03;100.00
27014;BME280;14556;52.222;4.510;2023-06-22T12:10:50;100955.88;;;22.04;100.00
27014;BME280;14556;52.222;4.510;2023-06-22T12:13:16;100952.34;;;21.98;100.00
27014;BME280;14556;52.222;4.510;2023-06-22T12:15:43;100952.03;;;21.74;100.00
27014;BME280;14556;52.222;4.510;2023-06-22T12:18:10;100952.31;;;21.67;100.00
27014;BME280;14556;52.222;4.510;2023-06-22T12:20:37;100945.50;;;21.70;100.00
27014;BME280;14556;52.222;4.510;2023-06-22T12:23:04;100939.53;;;21.73;100.00
27014;BME280;14556;52.222;4.510;2023-06-22T12:25:33;100937.59;;;21.73;100.00
27014;BME280;14556;52.222;4.510;2023-06-22T12:27:59;100936.56;;;21.80;100.00
27014;BME280;14556;52.222;4.510;2023-06-22T12:30:27;100934.38;;;21.66;100.00
27014;BME280;14556;52.222;4.510;2023-06-22T12:32:55;100929.44;;;21.47;100.00
27014;BME280;14556;52.222;4.510;2023-06-22T12:35:22;100927.25;;;21.39;100.00
27014;BME280;14556;52.222;4.510;2023-06-22T12:37:49;100929.16;;;21.49;100.00
27014;BME280;14556;52.222;4.510;2023-06-22T12:40:15;100930.25;;;21.48;100.00
27014;BME280;14556;52.222;4.510;2023-06-22T12:42:42;100929.16;;;21.49;100.00
27014;BME280;14556;52.222;4.510;2023-06-22T12:45:09;100926.44;;;21.54;100.00
27014;BME280;14556;52.222;4.510;2023-06-22T12:47:36;100925.94;;;21.52;100.00